Time;durP1;ratioP1;P1;durP2;ratioP2;P2;SDS_P1;SDS_P2;PMS_P1;PMS_P2;Temp;Humidity;BMP_temperature;BMP_pressure;BME280_temperature;BME280_humidity;BME280_pressure;Samples;Min_cycle;Max_cycle;Signal;HPM_P1;HPM_P2
2022/02/15 00:00:26;;;;;;;;;;;;;;;;;;5080742;28;19916;-72
2022/02/15 00:02:51;;;;;;;;;;;;;;;;;;5080625;28;19955;-72
2022/02/15 00:05:16;;;;;;;;;;;;;;;;;;5088947;28;19927;-73
2022/02/15 00:07:42;;;;;;;;;;;;;;;;;;5097618;28;19946;-72
2022/02/15 00:10:08;;;;;;;;;;;;;;;;;;5088892;28;20003;-74
2022/02/15 00:12:34;;;;;;;;;;;;;;;;;;5089057;28;19937;-72
2022/02/15 00:15:00;;;;;;;;;;;;;;;;;;5080518;28;19950;-72
2022/02/15 00:17:25;;;;;;;;;;;;;;;;;;5080843;28;20872;-71
2022/02/15 00:19:50;;;;;;;;;;;;;;;;;;5088925;28;19974;-72
2022/02/15 00:22:16;;;;;;;;;;;;;;;;;;5088646;28;20132;-71
2022/02/15 00:24:42;;;;;;;;;;;;;;;;;;5089021;28;19916;-73
2022/02/15 00:27:07;;;;;;;;;;;;;;;;;;5088906;28;19923;-73
2022/02/15 00:29:32;;;;;;;;;;;;;;;;;;5089267;28;19939;-72
2022/02/15 00:31:58;;;;;;;;;;;;;;;;;;5087274;28;20032;-72
2022/02/15 00:34:23;;;;;;;;;;;;;;;;;;5089179;28;19945;-72
2022/02/15 00:36:49;;;;;;;;;;;;;;;;;;5088671;28;19952;-72
2022/02/15 00:39:14;;;;;;;;;;;;;;;;;;5073680;28;19916;-73
2022/02/15 00:41:39;;;;;;;;;;;;;;;;;;5080555;28;19916;-71
2022/02/15 00:44:05;;;;;;;;;;;;;;;;;;5080361;28;20327;-71
2022/02/15 00:46:32;;;;;;;;;;;;;;;;;;5092505;28;19920;-72
2022/02/15 00:48:57;;;;;;;;;;;;;;;;;;5083888;28;19916;-71
2022/02/15 00:51:22;;;;;;;;;;;;;;;;;;5092240;28;19916;-71
2022/02/15 00:53:48;;;;;;;;;;;;;;;;;;5090748;28;19916;-72
2022/02/15 00:56:13;;;;;;;;;;;;;;;;;;5083771;28;20227;-71
2022/02/15 00:58:38;;;;;;;;;;;;;;;;;;5092060;28;19920;-73
2022/02/15 01:01:04;;;;;;;;;;;;;;;;;;5083553;28;19919;-72
2022/02/15 01:03:29;;;;;;;;;;;;;;;;;;5077453;28;19916;-72
2022/02/15 01:05:54;;;;;;;;;;;;;;;;;;5076758;28;19920;-73
2022/02/15 01:08:20;;;;;;;;;;;;;;;;;;5091573;28;20372;-72
2022/02/15 01:10:46;;;;;;;;;;;;;;;;;;5091861;28;20019;-71
2022/02/15 01:13:12;;;;;;;;;;;;;;;;;;5094042;28;19920;-71
2022/02/15 01:15:38;;;;;;;;;;;;;;;;;;5082913;28;19945;-72
2022/02/15 01:18:03;;;;;;;;;;;;;;;;;;5077340;28;19921;-70
2022/02/15 01:20:29;;;;;;;;;;;;;;;;;;5076714;28;19921;-72
2022/02/15 01:22:55;;;;;;;;;;;;;;;;;;5091121;28;19916;-72
2022/02/15 01:25:20;;;;;;;;;;;;;;;;;;5084175;28;19916;-72
2022/02/15 01:27:46;;;;;;;;;;;;;;;;;;5086281;28;20246;-72
2022/02/15 01:30:11;;;;;;;;;;;;;;;;;;5092625;28;19916;-71
2022/02/15 01:32:37;;;;;;;;;;;;;;;;;;5092122;28;19916;-71
2022/02/15 01:35:03;;;;;;;;;;;;;;;;;;5083068;28;20046;-72
2022/02/15 01:37:28;;;;;;;;;;;;;;;;;;5091478;28;19920;-72
2022/02/15 01:39:53;;;;;;;;;;;;;;;;;;5091442;28;19916;-71
2022/02/15 01:42:19;;;;;;;;;;;;;;;;;;5091217;28;19959;-71
2022/02/15 01:44:45;;;;;;;;;;;;;;;;;;5091501;28;19924;-72
2022/02/15 01:47:20;;;;;;;;;;;;;;;;;;5091029;28;20380;-71
2022/02/15 01:49:45;;;;;;;;;;;;;;;;;;5091324;28;19919;-72
2022/02/15 01:52:10;;;;;;;;;;;;;;;;;;5090922;28;20004;-72
2022/02/15 01:54:36;;;;;;;;;;;;;;;;;;5090991;28;19920;-72
2022/02/15 01:57:01;;;;;;;;;;;;;;;;;;5090596;28;19963;-71
2022/02/15 01:59:27;;;;;;;;;;;;;;;;;;5091180;28;19919;-73
2022/02/15 02:01:52;;;;;;;;;;;;;;;;;;5090734;28;20382;-72
2022/02/15 02:07:01;;;;;;;;;;;;;;;;;;5090791;28;19973;-72
2022/02/15 02:09:27;;;;;;;;;;;;;;;;;;5089774;28;19964;-72
2022/02/15 02:11:52;;;;;;;;;;;;;;;;;;5082648;28;20276;-71
2022/02/15 02:14:17;;;;;;;;;;;;;;;;;;5100267;28;19921;-72
2022/02/15 02:16:43;;;;;;;;;;;;;;;;;;5082872;28;19916;-72
2022/02/15 02:19:08;;;;;;;;;;;;;;;;;;5090546;28;19931;-71
2022/02/15 02:21:37;;;;;;;;;;;;;;;;;;5090602;28;19916;-71
2022/02/15 02:24:03;;;;;;;;;;;;;;;;;;5084167;28;19915;-71
2022/02/15 02:26:28;;;;;;;;;;;;;;;;;;5075532;28;19939;-72
2022/02/15 02:28:54;;;;;;;;;;;;;;;;;;5075976;28;19916;-72
2022/02/15 02:31:20;;;;;;;;;;;;;;;;;;5082149;28;20482;-71
2022/02/15 02:33:45;;;;;;;;;;;;;;;;;;5089486;28;19932;-72
2022/02/15 02:36:10;;;;;;;;;;;;;;;;;;5076364;28;20015;-72
2022/02/15 02:38:36;;;;;;;;;;;;;;;;;;5075367;28;19927;-72
2022/02/15 02:41:01;;;;;;;;;;;;;;;;;;5088524;28;19920;-73
2022/02/15 02:43:28;;;;;;;;;;;;;;;;;;5090175;28;19920;-72
2022/02/15 02:45:53;;;;;;;;;;;;;;;;;;5081803;28;20015;-70
2022/02/15 02:48:19;;;;;;;;;;;;;;;;;;5089942;28;20003;-71
2022/02/15 02:50:44;;;;;;;;;;;;;;;;;;5089736;28;20387;-72
2022/02/15 02:53:11;;;;;;;;;;;;;;;;;;5081499;28;20437;-73
2022/02/15 02:55:38;;;;;;;;;;;;;;;;;;5089923;28;19920;-72
2022/02/15 02:58:03;;;;;;;;;;;;;;;;;;5089980;28;19931;-72
2022/02/15 03:00:28;;;;;;;;;;;;;;;;;;5090041;28;19916;-72
2022/02/15 03:02:54;;;;;;;;;;;;;;;;;;5081944;28;20594;-72
2022/02/15 03:05:19;;;;;;;;;;;;;;;;;;5089931;28;19916;-72
2022/02/15 03:07:45;;;;;;;;;;;;;;;;;;5089695;28;20376;-72
2022/02/15 03:10:11;;;;;;;;;;;;;;;;;;5089505;28;19926;-71
2022/02/15 03:12:37;;;;;;;;;;;;;;;;;;5089616;28;19916;-71
2022/02/15 03:15:02;;;;;;;;;;;;;;;;;;5089474;28;19969;-71
2022/02/15 03:17:27;;;;;;;;;;;;;;;;;;5089945;28;19927;-72
2022/02/15 03:19:53;;;;;;;;;;;;;;;;;;5089635;28;20287;-71
2022/02/15 03:22:19;;;;;;;;;;;;;;;;;;5089429;28;20377;-72
2022/02/15 03:24:45;;;;;;;;;;;;;;;;;;5088175;28;19926;-71
2022/02/15 03:27:10;;;;;;;;;;;;;;;;;;5080947;28;19916;-71
2022/02/15 03:29:35;;;;;;;;;;;;;;;;;;5098450;28;19916;-71
2022/02/15 03:32:01;;;;;;;;;;;;;;;;;;5089193;28;20239;-72
2022/02/15 03:34:26;;;;;;;;;;;;;;;;;;5089237;28;19971;-71
2022/02/15 03:36:51;;;;;;;;;;;;;;;;;;5080993;28;20015;-71
2022/02/15 03:39:17;;;;;;;;;;;;;;;;;;5080831;28;20015;-72
2022/02/15 03:44:27;;;;;;;;;;;;;;;;;;5089208;28;19974;-72
2022/02/15 03:46:52;;;;;;;;;;;;;;;;;;5081243;28;19915;-72
2022/02/15 03:49:18;;;;;;;;;;;;;;;;;;5089572;28;19995;-77
2022/02/15 03:51:43;;;;;;;;;;;;;;;;;;5082689;28;19920;-79
2022/02/15 03:54:09;;;;;;;;;;;;;;;;;;5081638;28;20653;-77
2022/02/15 03:56:35;;;;;;;;;;;;;;;;;;5090438;28;19916;-78
2022/02/15 03:59:00;;;;;;;;;;;;;;;;;;5062351;28;20286;-76
2022/02/15 04:01:26;;;;;;;;;;;;;;;;;;5086568;28;19924;-77
2022/02/15 04:03:51;;;;;;;;;;;;;;;;;;5078128;28;20348;-71
2022/02/15 04:06:17;;;;;;;;;;;;;;;;;;5085668;28;19916;-72
2022/02/15 04:08:42;;;;;;;;;;;;;;;;;;5077386;28;19974;-72
2022/02/15 04:11:08;;;;;;;;;;;;;;;;;;5077165;28;20360;-71
2022/02/15 04:13:33;;;;;;;;;;;;;;;;;;5080693;28;19977;-71
2022/02/15 04:15:58;;;;;;;;;;;;;;;;;;5089276;28;19961;-72
2022/02/15 04:18:24;;;;;;;;;;;;;;;;;;5088840;28;19922;-72
2022/02/15 04:20:49;;;;;;;;;;;;;;;;;;5083675;28;19935;-72
2022/02/15 04:23:14;;;;;;;;;;;;;;;;;;5092707;28;19920;-71
2022/02/15 04:25:40;;;;;;;;;;;;;;;;;;5091666;28;20227;-71
2022/02/15 04:28:05;;;;;;;;;;;;;;;;;;5092849;28;19916;-72
2022/02/15 04:30:31;;;;;;;;;;;;;;;;;;5092344;28;19931;-72
2022/02/15 04:32:57;;;;;;;;;;;;;;;;;;5092702;28;19916;-72
2022/02/15 04:35:22;;;;;;;;;;;;;;;;;;5091098;28;19916;-71
2022/02/15 04:37:48;;;;;;;;;;;;;;;;;;5092517;28;19931;-70
2022/02/15 04:40:13;;;;;;;;;;;;;;;;;;5092464;28;19942;-72
2022/02/15 04:42:38;;;;;;;;;;;;;;;;;;5092668;28;20316;-72
2022/02/15 04:45:04;;;;;;;;;;;;;;;;;;5092742;28;19916;-71
2022/02/15 04:47:29;;;;;;;;;;;;;;;;;;5084228;28;19917;-71
2022/02/15 04:49:55;;;;;;;;;;;;;;;;;;5083967;28;20395;-72
2022/02/15 04:52:20;;;;;;;;;;;;;;;;;;5091942;28;20548;-72
2022/02/15 04:54:45;;;;;;;;;;;;;;;;;;5092374;28;20421;-71
2022/02/15 04:57:11;;;;;;;;;;;;;;;;;;5092460;28;19950;-71
2022/02/15 04:59:36;;;;;;;;;;;;;;;;;;5093457;28;19922;-72
2022/02/15 05:02:01;;;;;;;;;;;;;;;;;;5091018;28;19920;-72
2022/02/15 05:07:11;;;;;;;;;;;;;;;;;;5087959;28;20398;-72
2022/02/15 05:09:36;;;;;;;;;;;;;;;;;;5091930;28;19956;-72
2022/02/15 05:12:02;;;;;;;;;;;;;;;;;;5083586;28;19920;-72
2022/02/15 05:14:27;;;;;;;;;;;;;;;;;;5091639;28;20368;-72
2022/02/15 05:16:53;;;;;;;;;;;;;;;;;;5083352;28;19923;-72
2022/02/15 05:19:18;;;;;;;;;;;;;;;;;;5083308;28;20019;-72
2022/02/15 05:21:44;;;;;;;;;;;;;;;;;;5091216;28;19939;-72
2022/02/15 05:24:09;;;;;;;;;;;;;;;;;;5091648;28;20303;-71
2022/02/15 05:26:34;;;;;;;;;;;;;;;;;;5090467;28;19969;-72
2022/02/15 05:29:00;;;;;;;;;;;;;;;;;;5083469;28;19920;-72
2022/02/15 05:31:26;;;;;;;;;;;;;;;;;;5090906;28;19916;-71
2022/02/15 05:33:51;;;;;;;;;;;;;;;;;;5091794;28;20020;-73
2022/02/15 05:36:17;;;;;;;;;;;;;;;;;;5091429;28;20376;-71
2022/02/15 05:38:42;;;;;;;;;;;;;;;;;;5076306;28;20243;-71
2022/02/15 05:41:08;;;;;;;;;;;;;;;;;;5083127;28;20368;-72
2022/02/15 05:43:33;;;;;;;;;;;;;;;;;;5090980;28;20030;-71
2022/02/15 05:45:59;;;;;;;;;;;;;;;;;;5091214;28;19967;-72
2022/02/15 05:48:24;;;;;;;;;;;;;;;;;;5076433;28;19923;-73
2022/02/15 05:50:50;;;;;;;;;;;;;;;;;;5083810;28;19916;-72
2022/02/15 05:53:15;;;;;;;;;;;;;;;;;;5090299;28;20062;-72
2022/02/15 05:55:41;;;;;;;;;;;;;;;;;;5077065;28;19928;-72
2022/02/15 05:58:06;;;;;;;;;;;;;;;;;;5081530;28;19974;-72
2022/02/15 06:00:33;;;;;;;;;;;;;;;;;;5090580;28;19920;-72
2022/02/15 06:02:58;;;;;;;;;;;;;;;;;;5089997;28;19924;-72
2022/02/15 06:05:24;;;;;;;;;;;;;;;;;;5090643;28;19920;-72
2022/02/15 06:07:49;;;;;;;;;;;;;;;;;;5090820;28;20383;-71
2022/02/15 06:10:15;;;;;;;;;;;;;;;;;;5090349;28;19942;-71
2022/02/15 06:12:40;;;;;;;;;;;;;;;;;;5090788;28;19919;-71
2022/02/15 06:15:06;;;;;;;;;;;;;;;;;;5075787;28;19920;-72
2022/02/15 06:17:32;;;;;;;;;;;;;;;;;;5094204;28;19925;-74
2022/02/15 06:19:58;;;;;;;;;;;;;;;;;;5089286;28;19916;-71
2022/02/15 06:22:23;;;;;;;;;;;;;;;;;;5088837;28;19969;-73
2022/02/15 06:24:49;;;;;;;;;;;;;;;;;;5082447;28;20376;-72
2022/02/15 06:27:14;;;;;;;;;;;;;;;;;;5087183;28;20304;-73
2022/02/15 06:29:40;;;;;;;;;;;;;;;;;;5090096;28;19916;-73
2022/02/15 06:32:05;;;;;;;;;;;;;;;;;;5085336;28;19920;-72
2022/02/15 06:34:31;;;;;;;;;;;;;;;;;;5084801;28;19959;-73
2022/02/15 06:36:56;;;;;;;;;;;;;;;;;;5088156;28;20333;-73
2022/02/15 06:39:21;;;;;;;;;;;;;;;;;;5081578;28;19920;-72
2022/02/15 06:41:47;;;;;;;;;;;;;;;;;;5079782;28;19951;-72
2022/02/15 06:44:12;;;;;;;;;;;;;;;;;;5084443;28;19916;-73
2022/02/15 06:46:38;;;;;;;;;;;;;;;;;;5080625;28;19920;-73
2022/02/15 06:49:04;;;;;;;;;;;;;;;;;;5093855;28;20245;-74
2022/02/15 06:51:29;;;;;;;;;;;;;;;;;;5087013;28;20286;-72
2022/02/15 06:53:55;;;;;;;;;;;;;;;;;;5088366;28;19915;-73
2022/02/15 06:56:20;;;;;;;;;;;;;;;;;;5081437;28;19931;-71
2022/02/15 06:58:47;;;;;;;;;;;;;;;;;;5089489;28;19916;-72
2022/02/15 07:01:12;;;;;;;;;;;;;;;;;;5087963;28;19928;-72
2022/02/15 07:03:38;;;;;;;;;;;;;;;;;;5087013;28;19969;-73
2022/02/15 07:06:04;;;;;;;;;;;;;;;;;;5091840;28;19920;-72
2022/02/15 07:08:29;;;;;;;;;;;;;;;;;;5081922;28;20178;-73
2022/02/15 07:10:56;;;;;;;;;;;;;;;;;;5086096;28;19958;-71
2022/02/15 07:13:22;;;;;;;;;;;;;;;;;;5087712;28;20011;-73
2022/02/15 07:15:48;;;;;;;;;;;;;;;;;;5085717;28;19923;-72
2022/02/15 07:18:14;;;;;;;;;;;;;;;;;;5087624;28;19924;-75
2022/02/15 07:20:39;;;;;;;;;;;;;;;;;;5085003;28;19920;-74
2022/02/15 07:23:07;;;;;;;;;;;;;;;;;;5084221;28;20229;-73
2022/02/15 07:25:33;;;;;;;;;;;;;;;;;;5085090;28;19916;-73
2022/02/15 07:28:02;;;;;;;;;;;;;;;;;;5081733;28;20368;-74
2022/02/15 07:30:27;;;;;;;;;;;;;;;;;;5084493;28;19924;-72
2022/02/15 07:32:53;;;;;;;;;;;;;;;;;;5082967;28;19920;-73
2022/02/15 07:35:18;;;;;;;;;;;;;;;;;;5084951;28;19924;-73
2022/02/15 07:37:47;;;;;;;;;;;;;;;;;;5077107;28;19963;-73
2022/02/15 07:40:13;;;;;;;;;;;;;;;;;;5086041;28;19916;-74
2022/02/15 07:42:38;;;;;;;;;;;;;;;;;;5080441;28;19923;-73
2022/02/15 07:45:04;;;;;;;;;;;;;;;;;;5074231;28;20473;-73
2022/02/15 07:47:29;;;;;;;;;;;;;;;;;;5076846;28;20089;-73
2022/02/15 07:49:54;;;;;;;;;;;;;;;;;;5078408;28;19916;-74
2022/02/15 07:52:20;;;;;;;;;;;;;;;;;;5080397;28;19924;-75
2022/02/15 07:54:45;;;;;;;;;;;;;;;;;;5086091;28;19927;-74
2022/02/15 07:57:10;;;;;;;;;;;;;;;;;;5079340;28;19930;-72
2022/02/15 07:59:36;;;;;;;;;;;;;;;;;;5075942;28;19988;-72
2022/02/15 08:02:02;;;;;;;;;;;;;;;;;;5084913;28;20498;-73
2022/02/15 08:04:28;;;;;;;;;;;;;;;;;;5082514;28;19947;-74
2022/02/15 08:06:53;;;;;;;;;;;;;;;;;;5078053;28;20291;-74
2022/02/15 08:09:21;;;;;;;;;;;;;;;;;;5082999;28;19923;-73
2022/02/15 08:11:47;;;;;;;;;;;;;;;;;;5072488;28;19927;-72
2022/02/15 08:14:12;;;;;;;;;;;;;;;;;;5080825;28;20282;-73
2022/02/15 08:16:38;;;;;;;;;;;;;;;;;;5073292;28;20580;-72
2022/02/15 08:19:03;;;;;;;;;;;;;;;;;;5078576;28;19928;-72
2022/02/15 08:21:29;;;;;;;;;;;;;;;;;;5079170;28;19920;-72
2022/02/15 08:23:54;;;;;;;;;;;;;;;;;;5082942;28;19916;-73
2022/02/15 08:26:20;;;;;;;;;;;;;;;;;;5078092;28;19928;-73
2022/02/15 08:28:46;;;;;;;;;;;;;;;;;;5077825;28;19931;-73
2022/02/15 08:31:12;;;;;;;;;;;;;;;;;;5073443;28;20494;-74
2022/02/15 08:33:38;;;;;;;;;;;;;;;;;;5084596;28;20021;-74
2022/02/15 08:36:04;;;;;;;;;;;;;;;;;;5077576;28;19924;-73
2022/02/15 08:38:33;;;;;;;;;;;;;;;;;;5077083;28;20011;-74
2022/02/15 08:40:59;;;;;;;;;;;;;;;;;;5076350;28;19924;-74
2022/02/15 08:43:25;;;;;;;;;;;;;;;;;;5072091;28;19920;-73
2022/02/15 08:45:50;;;;;;;;;;;;;;;;;;5079002;28;20398;-74
2022/02/15 08:48:15;;;;;;;;;;;;;;;;;;5074082;28;19936;-72
2022/02/15 08:50:42;;;;;;;;;;;;;;;;;;5079159;28;19924;-74
2022/02/15 08:53:09;;;;;;;;;;;;;;;;;;5073799;28;19931;-73
2022/02/15 08:55:34;;;;;;;;;;;;;;;;;;5088421;28;20518;-73
2022/02/15 08:58:00;;;;;;;;;;;;;;;;;;5081035;28;19931;-73
2022/02/15 09:00:25;;;;;;;;;;;;;;;;;;5081698;28;20449;-72
2022/02/15 09:02:51;;;;;;;;;;;;;;;;;;5076754;28;19943;-73
2022/02/15 09:05:16;;;;;;;;;;;;;;;;;;5078509;28;19930;-73
2022/02/15 09:07:41;;;;;;;;;;;;;;;;;;5072899;28;19924;-74
2022/02/15 09:10:07;;;;;;;;;;;;;;;;;;5075019;28;20470;-74
2022/02/15 09:12:33;;;;;;;;;;;;;;;;;;5081216;28;19931;-73
2022/02/15 09:14:59;;;;;;;;;;;;;;;;;;5083369;28;19931;-73
2022/02/15 09:17:25;;;;;;;;;;;;;;;;;;5077163;28;20315;-74
2022/02/15 09:19:50;;;;;;;;;;;;;;;;;;5092732;28;20306;-74
2022/02/15 09:22:17;;;;;;;;;;;;;;;;;;5076775;28;20351;-73
2022/02/15 09:24:43;;;;;;;;;;;;;;;;;;5077538;28;19924;-73
2022/02/15 09:27:08;;;;;;;;;;;;;;;;;;5078750;28;19924;-73
2022/02/15 09:29:34;;;;;;;;;;;;;;;;;;5074428;28;20471;-75
2022/02/15 09:31:59;;;;;;;;;;;;;;;;;;5070059;28;20019;-74
2022/02/15 09:34:26;;;;;;;;;;;;;;;;;;5069515;28;20406;-73
2022/02/15 09:36:51;;;;;;;;;;;;;;;;;;5076850;28;20026;-73
2022/02/15 09:39:17;;;;;;;;;;;;;;;;;;5070872;28;20010;-74
2022/02/15 09:41:43;;;;;;;;;;;;;;;;;;5069226;28;19955;-74
2022/02/15 09:44:08;;;;;;;;;;;;;;;;;;5078437;28;19924;-73
2022/02/15 09:46:34;;;;;;;;;;;;;;;;;;5074581;28;19931;-73
2022/02/15 09:49:01;;;;;;;;;;;;;;;;;;5079810;28;20162;-73
2022/02/15 09:51:27;;;;;;;;;;;;;;;;;;5064128;28;19916;-74
2022/02/15 09:53:52;;;;;;;;;;;;;;;;;;5075209;28;20359;-73
2022/02/15 09:56:18;;;;;;;;;;;;;;;;;;5077290;28;19946;-74
2022/02/15 09:58:43;;;;;;;;;;;;;;;;;;5071237;28;20028;-73
2022/02/15 10:01:14;;;;;;;;;;;;;;;;;;5073828;28;19924;-73
2022/02/15 10:03:57;;;;;;;;;;;;;;;;;;5076758;28;19960;-73
2022/02/15 10:06:26;;;;;;;;;;;;;;;;;;5067718;28;19920;-73
2022/02/15 10:08:55;;;;;;;;;;;;;;;;;;5069255;28;19943;-72
2022/02/15 10:11:20;;;;;;;;;;;;;;;;;;5074659;28;19924;-74
2022/02/15 10:13:48;;;;;;;;;;;;;;;;;;5084647;28;19924;-73
2022/02/15 10:16:15;;;;;;;;;;;;;;;;;;5072912;28;20037;-73
2022/02/15 10:18:41;;;;;;;;;;;;;;;;;;5077932;28;20513;-73
2022/02/15 10:21:07;;;;;;;;;;;;;;;;;;5070497;28;19924;-75
2022/02/15 10:23:34;;;;;;;;;;;;;;;;;;5087911;28;20635;-73
2022/02/15 10:26:00;;;;;;;;;;;;;;;;;;5071581;28;19924;-74
2022/02/15 10:28:30;;;;;;;;;;;;;;;;;;5068005;28;20361;-73
2022/02/15 10:31:00;;;;;;;;;;;;;;;;;;5071123;28;20355;-74
2022/02/15 10:33:35;;;;;;;;;;;;;;;;;;5066697;28;19935;-74
2022/02/15 10:36:03;;;;;;;;;;;;;;;;;;5070991;28;19924;-72
2022/02/15 10:38:32;;;;;;;;;;;;;;;;;;5074576;28;20284;-72
2022/02/15 10:40:58;;;;;;;;;;;;;;;;;;5065517;28;20741;-73
2022/02/15 10:43:25;;;;;;;;;;;;;;;;;;5068751;28;20412;-73
2022/02/15 10:45:50;;;;;;;;;;;;;;;;;;5076604;28;19926;-74
2022/02/15 10:48:15;;;;;;;;;;;;;;;;;;5077935;28;19964;-74
2022/02/15 10:50:41;;;;;;;;;;;;;;;;;;5075847;28;19924;-73
2022/02/15 10:53:07;;;;;;;;;;;;;;;;;;5070521;28;19934;-73
2022/02/15 10:55:33;;;;;;;;;;;;;;;;;;5069566;28;20051;-73
2022/02/15 10:57:59;;;;;;;;;;;;;;;;;;5071508;28;20535;-73
2022/02/15 11:00:24;;;;;;;;;;;;;;;;;;5071905;28;19946;-73
2022/02/15 11:02:51;;;;;;;;;;;;;;;;;;5076618;28;19925;-73
2022/02/15 11:05:17;;;;;;;;;;;;;;;;;;5079259;28;19920;-72
2022/02/15 11:07:42;;;;;;;;;;;;;;;;;;5082597;28;20280;-72
2022/02/15 11:10:13;;;;;;;;;;;;;;;;;;5075256;28;20430;-73
2022/02/15 11:12:55;;;;;;;;;;;;;;;;;;5073818;28;19924;-73
2022/02/15 11:15:23;;;;;;;;;;;;;;;;;;5076676;28;20371;-72
2022/02/15 11:17:50;;;;;;;;;;;;;;;;;;5069581;28;19967;-73
2022/02/15 11:20:17;;;;;;;;;;;;;;;;;;5076836;28;20256;-73
2022/02/15 11:22:43;;;;;;;;;;;;;;;;;;5073292;28;19931;-75
2022/02/15 11:25:08;;;;;;;;;;;;;;;;;;5078472;28;19920;-74
2022/02/15 11:27:33;;;;;;;;;;;;;;;;;;5077107;28;19920;-72
2022/02/15 11:30:00;;;;;;;;;;;;;;;;;;5076581;28;19916;-74
2022/02/15 11:32:26;;;;;;;;;;;;;;;;;;5071882;28;21227;-74
2022/02/15 11:34:52;;;;;;;;;;;;;;;;;;5075744;28;19923;-74
2022/02/15 11:37:19;;;;;;;;;;;;;;;;;;5078365;28;20738;-74
2022/02/15 11:40:16;;;;;;;;;;;;;;;;;;5075778;28;23724;-73
2022/02/15 11:42:46;;;;;;;;;;;;;;;;;;5062848;28;19924;-71
2022/02/15 11:45:16;;;;;;;;;;;;;;;;;;5078205;28;20415;-72
2022/02/15 11:47:47;;;;;;;;;;;;;;;;;;5068815;28;20026;-74
2022/02/15 11:50:15;;;;;;;;;;;;;;;;;;5071459;28;19936;-71
2022/02/15 11:52:41;;;;;;;;;;;;;;;;;;5066333;28;19995;-73
2022/02/15 11:55:09;;;;;;;;;;;;;;;;;;5073763;28;20019;-73
2022/02/15 11:57:35;;;;;;;;;;;;;;;;;;5066514;28;20018;-73
2022/02/15 12:00:00;;;;;;;;;;;;;;;;;;5079892;28;20010;-74
2022/02/15 12:02:26;;;;;;;;;;;;;;;;;;5096996;28;19920;-72
2022/02/15 12:05:04;;;;;;;;;;;;;;;;;;5083455;28;19920;-73
2022/02/15 12:07:31;;;;;;;;;;;;;;;;;;5068456;28;19924;-73
2022/02/15 12:09:57;;;;;;;;;;;;;;;;;;5071490;28;19921;-73
2022/02/15 12:12:30;;;;;;;;;;;;;;;;;;5075765;28;19916;-73
2022/02/15 12:14:56;;;;;;;;;;;;;;;;;;5068938;28;19917;-73
2022/02/15 12:17:22;;;;;;;;;;;;;;;;;;5072215;28;19923;-74
2022/02/15 12:19:48;;;;;;;;;;;;;;;;;;5050190;28;19977;-73
2022/02/15 12:22:17;;;;;;;;;;;;;;;;;;5076442;28;19927;-73
2022/02/15 12:24:42;;;;;;;;;;;;;;;;;;5067929;28;20706;-74
2022/02/15 12:27:08;;;;;;;;;;;;;;;;;;5066583;28;19936;-73
2022/02/15 12:29:34;;;;;;;;;;;;;;;;;;5074978;28;20016;-73
2022/02/15 12:32:01;;;;;;;;;;;;;;;;;;5064085;28;20470;-73
2022/02/15 12:34:27;;;;;;;;;;;;;;;;;;5067349;28;19916;-72
2022/02/15 12:36:54;;;;;;;;;;;;;;;;;;5064194;28;19977;-73
2022/02/15 12:39:20;;;;;;;;;;;;;;;;;;5066173;28;20426;-73
2022/02/15 12:41:49;;;;;;;;;;;;;;;;;;5067774;28;19920;-73
2022/02/15 12:44:15;;;;;;;;;;;;;;;;;;5073693;28;20316;-74
2022/02/15 12:46:40;;;;;;;;;;;;;;;;;;5068370;28;19928;-74
2022/02/15 12:49:07;;;;;;;;;;;;;;;;;;5082008;28;19924;-73
2022/02/15 12:51:37;;;;;;;;;;;;;;;;;;5054415;28;19928;-73
2022/02/15 12:54:04;;;;;;;;;;;;;;;;;;5069257;28;19928;-72
2022/02/15 12:56:31;;;;;;;;;;;;;;;;;;5068319;28;19924;-72
2022/02/15 12:58:57;;;;;;;;;;;;;;;;;;5088529;28;20376;-73
2022/02/15 13:01:24;;;;;;;;;;;;;;;;;;5073233;28;19920;-73
2022/02/15 13:03:53;;;;;;;;;;;;;;;;;;5076264;28;19955;-73
2022/02/15 13:06:20;;;;;;;;;;;;;;;;;;5075276;28;19947;-72
2022/02/15 13:08:47;;;;;;;;;;;;;;;;;;5072346;28;20043;-73
2022/02/15 13:11:13;;;;;;;;;;;;;;;;;;5080151;28;19930;-73
2022/02/15 13:13:39;;;;;;;;;;;;;;;;;;5077457;28;20388;-73
2022/02/15 13:16:05;;;;;;;;;;;;;;;;;;5071745;28;20031;-75
2022/02/15 13:18:44;;;;;;;;;;;;;;;;;;5071821;28;19920;-75
2022/02/15 13:21:13;;;;;;;;;;;;;;;;;;5077788;28;19924;-74
2022/02/15 13:23:38;;;;;;;;;;;;;;;;;;5076219;28;20290;-73
2022/02/15 13:26:11;;;;;;;;;;;;;;;;;;5073465;28;19928;-73
2022/02/15 13:28:43;;;;;;;;;;;;;;;;;;5069589;28;20495;-74
2022/02/15 13:31:09;;;;;;;;;;;;;;;;;;5078975;28;19924;-75
2022/02/15 13:33:43;;;;;;;;;;;;;;;;;;5069080;28;19924;-74
2022/02/15 13:36:11;;;;;;;;;;;;;;;;;;5083653;28;19924;-75
2022/02/15 13:38:36;;;;;;;;;;;;;;;;;;5068026;28;19967;-73
2022/02/15 13:41:02;;;;;;;;;;;;;;;;;;5074285;28;20011;-74
2022/02/15 13:43:28;;;;;;;;;;;;;;;;;;5079927;28;19924;-74
2022/02/15 13:45:54;;;;;;;;;;;;;;;;;;5082471;28;19973;-74
2022/02/15 13:48:20;;;;;;;;;;;;;;;;;;5071472;28;19924;-73
2022/02/15 13:50:45;;;;;;;;;;;;;;;;;;5073468;28;19919;-74
2022/02/15 13:53:11;;;;;;;;;;;;;;;;;;5081868;28;20015;-74
2022/02/15 13:55:36;;;;;;;;;;;;;;;;;;5077500;28;20001;-74
2022/02/15 13:58:02;;;;;;;;;;;;;;;;;;5073326;28;19924;-73
2022/02/15 14:00:27;;;;;;;;;;;;;;;;;;5070486;28;20772;-72
2022/02/15 14:02:54;;;;;;;;;;;;;;;;;;5078394;28;20438;-74
2022/02/15 14:05:20;;;;;;;;;;;;;;;;;;5077991;28;19924;-73
2022/02/15 14:07:46;;;;;;;;;;;;;;;;;;5076280;28;20072;-73
2022/02/15 14:10:11;;;;;;;;;;;;;;;;;;5071761;28;19928;-74
2022/02/15 14:12:40;;;;;;;;;;;;;;;;;;5070602;28;20341;-74
2022/02/15 14:15:09;;;;;;;;;;;;;;;;;;5077070;28;20030;-73
2022/02/15 14:17:38;;;;;;;;;;;;;;;;;;5066089;28;19949;-72
2022/02/15 14:20:09;;;;;;;;;;;;;;;;;;5072503;28;19930;-74
2022/02/15 14:22:35;;;;;;;;;;;;;;;;;;5078437;28;19959;-74
2022/02/15 14:25:03;;;;;;;;;;;;;;;;;;5072078;28;19952;-73
2022/02/15 14:27:29;;;;;;;;;;;;;;;;;;5074513;28;20383;-74
2022/02/15 14:29:54;;;;;;;;;;;;;;;;;;5079664;28;19920;-74
2022/02/15 14:32:19;;;;;;;;;;;;;;;;;;5076690;28;20644;-74
2022/02/15 14:34:45;;;;;;;;;;;;;;;;;;5080676;28;19962;-74
2022/02/15 14:37:10;;;;;;;;;;;;;;;;;;5076927;28;20467;-74
2022/02/15 14:39:35;;;;;;;;;;;;;;;;;;5077996;28;19985;-74
2022/02/15 14:42:06;;;;;;;;;;;;;;;;;;5087715;28;19970;-75
2022/02/15 14:44:32;;;;;;;;;;;;;;;;;;5069203;28;19931;-74
2022/02/15 14:46:57;;;;;;;;;;;;;;;;;;5076512;28;19924;-73
2022/02/15 14:49:22;;;;;;;;;;;;;;;;;;5067265;28;19920;-74
2022/02/15 14:51:49;;;;;;;;;;;;;;;;;;5077203;28;20441;-75
2022/02/15 14:54:14;;;;;;;;;;;;;;;;;;5078244;28;20453;-74
2022/02/15 14:56:40;;;;;;;;;;;;;;;;;;5075857;28;19962;-74
2022/02/15 14:59:05;;;;;;;;;;;;;;;;;;5068567;28;19974;-74
2022/02/15 15:01:30;;;;;;;;;;;;;;;;;;5069897;28;19943;-74
2022/02/15 15:03:56;;;;;;;;;;;;;;;;;;5080503;28;19931;-74
2022/02/15 15:06:21;;;;;;;;;;;;;;;;;;5074404;28;19997;-74
2022/02/15 15:08:47;;;;;;;;;;;;;;;;;;5091065;28;19938;-74
2022/02/15 15:11:12;;;;;;;;;;;;;;;;;;5083842;28;20078;-75
2022/02/15 15:13:37;;;;;;;;;;;;;;;;;;5082362;28;20451;-73
2022/02/15 15:16:05;;;;;;;;;;;;;;;;;;5076978;28;19921;-74
2022/02/15 15:18:30;;;;;;;;;;;;;;;;;;5073004;28;19924;-74
2022/02/15 15:20:56;;;;;;;;;;;;;;;;;;5076449;28;20415;-74
2022/02/15 15:23:23;;;;;;;;;;;;;;;;;;5078644;28;19979;-72
2022/02/15 15:25:49;;;;;;;;;;;;;;;;;;5082561;28;19920;-72
2022/02/15 15:28:14;;;;;;;;;;;;;;;;;;5077750;28;19961;-74
2022/02/15 15:30:40;;;;;;;;;;;;;;;;;;5074856;28;19923;-73
2022/02/15 15:33:05;;;;;;;;;;;;;;;;;;5081335;28;20011;-73
2022/02/15 15:35:30;;;;;;;;;;;;;;;;;;5079726;28;19916;-74
2022/02/15 15:37:56;;;;;;;;;;;;;;;;;;5086821;28;19920;-75
2022/02/15 15:40:21;;;;;;;;;;;;;;;;;;5079857;28;20419;-75
2022/02/15 15:42:47;;;;;;;;;;;;;;;;;;5078758;28;19931;-74
2022/02/15 15:45:13;;;;;;;;;;;;;;;;;;5082481;28;20673;-74
2022/02/15 15:47:39;;;;;;;;;;;;;;;;;;5075554;28;19959;-74
2022/02/15 15:50:07;;;;;;;;;;;;;;;;;;5083011;28;19927;-75
2022/02/15 15:52:32;;;;;;;;;;;;;;;;;;5088366;28;19920;-74
2022/02/15 15:54:57;;;;;;;;;;;;;;;;;;5076437;28;19939;-74
2022/02/15 15:57:23;;;;;;;;;;;;;;;;;;5087002;28;20364;-75
2022/02/15 15:59:49;;;;;;;;;;;;;;;;;;5079187;28;19920;-74
2022/02/15 16:02:14;;;;;;;;;;;;;;;;;;5082672;28;20308;-75
2022/02/15 16:04:43;;;;;;;;;;;;;;;;;;5080824;28;19920;-75
2022/02/15 16:07:09;;;;;;;;;;;;;;;;;;5074200;28;20402;-74
2022/02/15 16:09:34;;;;;;;;;;;;;;;;;;5074314;28;19927;-75
2022/02/15 16:12:00;;;;;;;;;;;;;;;;;;5073233;28;20394;-74
2022/02/15 16:14:25;;;;;;;;;;;;;;;;;;5078921;28;19916;-74
2022/02/15 16:16:51;;;;;;;;;;;;;;;;;;5089389;28;19931;-75
2022/02/15 16:19:16;;;;;;;;;;;;;;;;;;5085163;28;19935;-75
2022/02/15 16:21:42;;;;;;;;;;;;;;;;;;5072976;28;19943;-75
2022/02/15 16:24:08;;;;;;;;;;;;;;;;;;5077369;28;19922;-74
2022/02/15 16:26:34;;;;;;;;;;;;;;;;;;5089737;28;19916;-75
2022/02/15 16:28:59;;;;;;;;;;;;;;;;;;5091367;28;19916;-75
2022/02/15 16:31:26;;;;;;;;;;;;;;;;;;5090745;28;19916;-73
2022/02/15 16:33:52;;;;;;;;;;;;;;;;;;5083870;28;19923;-75
2022/02/15 16:36:19;;;;;;;;;;;;;;;;;;5085578;28;19939;-74
2022/02/15 16:38:45;;;;;;;;;;;;;;;;;;5090469;28;19920;-74
2022/02/15 16:41:11;;;;;;;;;;;;;;;;;;5085830;28;19993;-76
2022/02/15 16:43:37;;;;;;;;;;;;;;;;;;5089774;28;19918;-74
2022/02/15 16:46:02;;;;;;;;;;;;;;;;;;5091601;28;20300;-74